sensor_id;sensor_type;location;lat;lon;timestamp;temperature;humidity
29803;DHT22;16702;50.898;4.662;2023-05-29T00:00:48;20.30;99.90
29803;DHT22;16702;50.898;4.662;2023-05-29T00:03:19;20.20;99.90
29803;DHT22;16702;50.898;4.662;2023-05-29T00:05:52;20.30;99.90
29803;DHT22;16702;50.898;4.662;2023-05-29T00:08:23;20.20;99.90
29803;DHT22;16702;50.898;4.662;2023-05-29T00:10:53;20.10;99.90
29803;DHT22;16702;50.898;4.662;2023-05-29T00:13:25;20.10;99.90
29803;DHT22;16702;50.898;4.662;2023-05-29T00:15:56;20.10;99.90
29803;DHT22;16702;50.898;4.662;2023-05-29T00:18:38;20.10;99.90
29803;DHT22;16702;50.898;4.662;2023-05-29T00:21:16;20.00;99.90
29803;DHT22;16702;50.898;4.662;2023-05-29T00:23:47;19.80;99.90
29803;DHT22;16702;50.898;4.662;2023-05-29T00:26:18;19.90;99.90
29803;DHT22;16702;50.898;4.662;2023-05-29T00:28:53;19.80;99.90
29803;DHT22;16702;50.898;4.662;2023-05-29T00:31:24;19.90;99.90
29803;DHT22;16702;50.898;4.662;2023-05-29T00:33:55;19.70;99.90
29803;DHT22;16702;50.898;4.662;2023-05-29T00:36:28;19.70;99.90
29803;DHT22;16702;50.898;4.662;2023-05-29T00:38:59;19.70;99.90
29803;DHT22;16702;50.898;4.662;2023-05-29T00:41:30;19.60;99.90
29803;DHT22;16702;50.898;4.662;2023-05-29T00:44:00;19.60;99.90
29803;DHT22;16702;50.898;4.662;2023-05-29T00:46:33;19.50;99.90
29803;DHT22;16702;50.898;4.662;2023-05-29T00:49:04;19.50;99.90
29803;DHT22;16702;50.898;4.662;2023-05-29T00:51:38;19.40;99.90
29803;DHT22;16702;50.898;4.662;2023-05-29T00:54:12;19.50;99.90
29803;DHT22;16702;50.898;4.662;2023-05-29T00:56:43;19.50;99.90
29803;DHT22;16702;50.898;4.662;2023-05-29T00:59:14;19.40;99.90
29803;DHT22;16702;50.898;4.662;2023-05-29T01:01:47;19.30;99.90
29803;DHT22;16702;50.898;4.662;2023-05-29T01:04:20;19.10;99.90
29803;DHT22;16702;50.898;4.662;2023-05-29T01:06:55;19.00;99.90
29803;DHT22;16702;50.898;4.662;2023-05-29T01:09:26;19.00;99.90
29803;DHT22;16702;50.898;4.662;2023-05-29T01:12:02;19.10;99.90
29803;DHT22;16702;50.898;4.662;2023-05-29T01:14:41;19.00;99.90
29803;DHT22;16702;50.898;4.662;2023-05-29T01:17:21;18.90;99.90
29803;DHT22;16702;50.898;4.662;2023-05-29T01:20:05;18.80;99.90
29803;DHT22;16702;50.898;4.662;2023-05-29T01:25:50;18.70;99.90
29803;DHT22;16702;50.898;4.662;2023-05-29T01:28:32;18.60;99.90
29803;DHT22;16702;50.898;4.662;2023-05-29T01:31:04;18.50;99.90
29803;DHT22;16702;50.898;4.662;2023-05-29T01:33:38;18.50;99.90
29803;DHT22;16702;50.898;4.662;2023-05-29T01:36:09;18.50;99.90
29803;DHT22;16702;50.898;4.662;2023-05-29T01:38:40;18.50;99.90
29803;DHT22;16702;50.898;4.662;2023-05-29T01:41:11;18.40;99.90
29803;DHT22;16702;50.898;4.662;2023-05-29T01:43:45;18.40;99.90
29803;DHT22;16702;50.898;4.662;2023-05-29T01:46:18;18.50;99.90
29803;DHT22;16702;50.898;4.662;2023-05-29T01:48:50;18.30;99.90
29803;DHT22;16702;50.898;4.662;2023-05-29T01:51:22;18.10;99.90
29803;DHT22;16702;50.898;4.662;2023-05-29T01:53:53;18.30;99.90
29803;DHT22;16702;50.898;4.662;2023-05-29T01:56:24;18.10;99.90
29803;DHT22;16702;50.898;4.662;2023-05-29T01:58:58;18.00;99.90
29803;DHT22;16702;50.898;4.662;2023-05-29T02:01:31;18.10;99.90
29803;DHT22;16702;50.898;4.662;2023-05-29T02:04:02;18.00;99.90
29803;DHT22;16702;50.898;4.662;2023-05-29T02:06:33;17.80;99.90
29803;DHT22;16702;50.898;4.662;2023-05-29T02:09:04;17.70;99.90
29803;DHT22;16702;50.898;4.662;2023-05-29T02:11:34;17.70;99.90
29803;DHT22;16702;50.898;4.662;2023-05-29T02:14:07;17.70;99.90
29803;DHT22;16702;50.898;4.662;2023-05-29T02:16:38;17.60;99.90
29803;DHT22;16702;50.898;4.662;2023-05-29T02:19:08;17.70;99.90
29803;DHT22;16702;50.898;4.662;2023-05-29T02:21:39;17.70;99.90
29803;DHT22;16702;50.898;4.662;2023-05-29T02:24:10;17.60;99.90
29803;DHT22;16702;50.898;4.662;2023-05-29T02:26:40;17.70;99.90
29803;DHT22;16702;50.898;4.662;2023-05-29T02:29:13;17.30;99.90
29803;DHT22;16702;50.898;4.662;2023-05-29T02:31:44;17.30;99.90
29803;DHT22;16702;50.898;4.662;2023-05-29T02:34:14;17.50;99.90
29803;DHT22;16702;50.898;4.662;2023-05-29T02:36:45;17.60;99.90
29803;DHT22;16702;50.898;4.662;2023-05-29T02:39:17;17.20;99.90
29803;DHT22;16702;50.898;4.662;2023-05-29T02:41:47;17.30;99.90
29803;DHT22;16702;50.898;4.662;2023-05-29T02:44:22;17.40;99.90
29803;DHT22;16702;50.898;4.662;2023-05-29T02:46:52;17.10;99.90
29803;DHT22;16702;50.898;4.662;2023-05-29T02:49:23;17.20;99.90
29803;DHT22;16702;50.898;4.662;2023-05-29T02:51:53;17.20;99.90
29803;DHT22;16702;50.898;4.662;2023-05-29T02:54:24;17.10;99.90
29803;DHT22;16702;50.898;4.662;2023-05-29T02:56:55;17.00;99.90
29803;DHT22;16702;50.898;4.662;2023-05-29T02:59:28;16.90;99.90
29803;DHT22;16702;50.898;4.662;2023-05-29T03:01:59;17.00;99.90
29803;DHT22;16702;50.898;4.662;2023-05-29T03:04:30;17.00;99.90
29803;DHT22;16702;50.898;4.662;2023-05-29T03:07:00;17.00;99.90
29803;DHT22;16702;50.898;4.662;2023-05-29T03:09:31;17.00;99.90
29803;DHT22;16702;50.898;4.662;2023-05-29T03:12:01;17.00;99.90
29803;DHT22;16702;50.898;4.662;2023-05-29T03:14:35;16.90;99.90
29803;DHT22;16702;50.898;4.662;2023-05-29T03:17:10;17.00;99.90
29803;DHT22;16702;50.898;4.662;2023-05-29T03:19:41;16.80;99.90
29803;DHT22;16702;50.898;4.662;2023-05-29T03:22:11;16.80;99.90
29803;DHT22;16702;50.898;4.662;2023-05-29T03:24:42;16.80;99.90
29803;DHT22;16702;50.898;4.662;2023-05-29T03:27:13;16.80;99.90
29803;DHT22;16702;50.898;4.662;2023-05-29T03:29:49;16.80;99.90
29803;DHT22;16702;50.898;4.662;2023-05-29T03:32:20;16.60;99.90
29803;DHT22;16702;50.898;4.662;2023-05-29T03:34:50;16.70;99.90
29803;DHT22;16702;50.898;4.662;2023-05-29T03:37:21;16.70;99.90
29803;DHT22;16702;50.898;4.662;2023-05-29T03:39:52;16.70;99.90
29803;DHT22;16702;50.898;4.662;2023-05-29T03:42:23;16.50;99.90
29803;DHT22;16702;50.898;4.662;2023-05-29T03:44:57;16.60;99.90
29803;DHT22;16702;50.898;4.662;2023-05-29T03:47:33;16.50;99.90
29803;DHT22;16702;50.898;4.662;2023-05-29T03:50:05;16.50;99.90
29803;DHT22;16702;50.898;4.662;2023-05-29T03:52:36;16.50;99.90
29803;DHT22;16702;50.898;4.662;2023-05-29T03:55:09;16.40;99.90
29803;DHT22;16702;50.898;4.662;2023-05-29T03:57:42;16.20;99.90
29803;DHT22;16702;50.898;4.662;2023-05-29T04:00:16;16.30;99.90
29803;DHT22;16702;50.898;4.662;2023-05-29T04:02:48;16.30;99.90
29803;DHT22;16702;50.898;4.662;2023-05-29T04:05:19;16.40;99.90
29803;DHT22;16702;50.898;4.662;2023-05-29T04:07:52;16.30;99.90
29803;DHT22;16702;50.898;4.662;2023-05-29T04:10:41;16.40;99.90
29803;DHT22;16702;50.898;4.662;2023-05-29T04:13:11;16.30;99.90
29803;DHT22;16702;50.898;4.662;2023-05-29T04:15:45;16.20;99.90
29803;DHT22;16702;50.898;4.662;2023-05-29T04:18:16;16.20;99.90
29803;DHT22;16702;50.898;4.662;2023-05-29T04:20:48;16.10;99.90
29803;DHT22;16702;50.898;4.662;2023-05-29T04:23:19;16.10;99.90
29803;DHT22;16702;50.898;4.662;2023-05-29T04:25:50;16.00;99.90
29803;DHT22;16702;50.898;4.662;2023-05-29T04:28:25;16.00;99.90
29803;DHT22;16702;50.898;4.662;2023-05-29T04:30:59;15.90;99.90
29803;DHT22;16702;50.898;4.662;2023-05-29T04:33:29;15.90;99.90
29803;DHT22;16702;50.898;4.662;2023-05-29T04:36:00;15.80;99.90
29803;DHT22;16702;50.898;4.662;2023-05-29T04:38:32;15.90;99.90
29803;DHT22;16702;50.898;4.662;2023-05-29T04:41:04;16.00;99.90
29803;DHT22;16702;50.898;4.662;2023-05-29T04:43:36;15.90;99.90
29803;DHT22;16702;50.898;4.662;2023-05-29T04:46:10;15.90;99.90
29803;DHT22;16702;50.898;4.662;2023-05-29T04:48:43;15.80;99.90
29803;DHT22;16702;50.898;4.662;2023-05-29T04:51:15;15.80;99.90
29803;DHT22;16702;50.898;4.662;2023-05-29T04:53:49;15.80;99.90
29803;DHT22;16702;50.898;4.662;2023-05-29T04:56:21;15.90;99.90
29803;DHT22;16702;50.898;4.662;2023-05-29T04:58:52;15.80;99.90
29803;DHT22;16702;50.898;4.662;2023-05-29T05:01:25;15.80;99.90
29803;DHT22;16702;50.898;4.662;2023-05-29T05:03:56;15.90;99.90
29803;DHT22;16702;50.898;4.662;2023-05-29T05:06:27;15.90;99.90
29803;DHT22;16702;50.898;4.662;2023-05-29T05:08:58;15.80;99.90
29803;DHT22;16702;50.898;4.662;2023-05-29T05:11:30;15.80;99.90
29803;DHT22;16702;50.898;4.662;2023-05-29T05:14:01;15.90;99.90
29803;DHT22;16702;50.898;4.662;2023-05-29T05:16:34;15.80;99.90
29803;DHT22;16702;50.898;4.662;2023-05-29T05:19:04;15.70;99.90
29803;DHT22;16702;50.898;4.662;2023-05-29T05:21:38;15.80;99.90
29803;DHT22;16702;50.898;4.662;2023-05-29T05:24:09;15.70;99.90
29803;DHT22;16702;50.898;4.662;2023-05-29T05:26:41;15.70;99.90
29803;DHT22;16702;50.898;4.662;2023-05-29T05:29:11;15.70;99.90
29803;DHT22;16702;50.898;4.662;2023-05-29T05:31:44;15.70;99.90
29803;DHT22;16702;50.898;4.662;2023-05-29T05:34:15;15.60;99.90
29803;DHT22;16702;50.898;4.662;2023-05-29T05:36:45;15.70;99.90
29803;DHT22;16702;50.898;4.662;2023-05-29T05:39:17;15.80;99.90
29803;DHT22;16702;50.898;4.662;2023-05-29T05:41:48;15.80;99.90
29803;DHT22;16702;50.898;4.662;2023-05-29T05:44:38;15.80;99.90
29803;DHT22;16702;50.898;4.662;2023-05-29T05:47:15;15.70;99.90
29803;DHT22;16702;50.898;4.662;2023-05-29T05:49:46;15.70;99.90
29803;DHT22;16702;50.898;4.662;2023-05-29T05:52:17;15.60;99.90
29803;DHT22;16702;50.898;4.662;2023-05-29T05:54:48;15.60;99.90
29803;DHT22;16702;50.898;4.662;2023-05-29T05:57:18;15.70;99.90
29803;DHT22;16702;50.898;4.662;2023-05-29T05:59:49;15.80;99.90
29803;DHT22;16702;50.898;4.662;2023-05-29T06:02:24;15.80;99.90
29803;DHT22;16702;50.898;4.662;2023-05-29T06:04:55;15.80;99.90
29803;DHT22;16702;50.898;4.662;2023-05-29T06:07:27;15.70;99.90
29803;DHT22;16702;50.898;4.662;2023-05-29T06:09:57;15.70;99.90
29803;DHT22;16702;50.898;4.662;2023-05-29T06:12:28;15.80;99.90
29803;DHT22;16702;50.898;4.662;2023-05-29T06:15:09;15.80;99.90
29803;DHT22;16702;50.898;4.662;2023-05-29T06:17:42;15.90;99.90
29803;DHT22;16702;50.898;4.662;2023-05-29T06:20:15;15.90;99.90
29803;DHT22;16702;50.898;4.662;2023-05-29T06:22:47;15.80;99.90
29803;DHT22;16702;50.898;4.662;2023-05-29T06:25:19;15.80;99.90
29803;DHT22;16702;50.898;4.662;2023-05-29T06:27:57;15.90;99.90
29803;DHT22;16702;50.898;4.662;2023-05-29T06:30:27;15.90;99.90
29803;DHT22;16702;50.898;4.662;2023-05-29T06:33:01;15.90;99.90
29803;DHT22;16702;50.898;4.662;2023-05-29T06:35:32;15.90;99.90
29803;DHT22;16702;50.898;4.662;2023-05-29T06:38:03;16.00;99.90
29803;DHT22;16702;50.898;4.662;2023-05-29T06:40:34;16.00;99.90
29803;DHT22;16702;50.898;4.662;2023-05-29T06:43:05;16.00;99.90
29803;DHT22;16702;50.898;4.662;2023-05-29T06:45:46;15.90;99.90
29803;DHT22;16702;50.898;4.662;2023-05-29T06:48:19;16.00;99.90
29803;DHT22;16702;50.898;4.662;2023-05-29T06:50:50;16.10;99.90
29803;DHT22;16702;50.898;4.662;2023-05-29T06:53:44;16.00;99.90
29803;DHT22;16702;50.898;4.662;2023-05-29T06:56:15;16.00;99.90
29803;DHT22;16702;50.898;4.662;2023-05-29T06:58:46;16.00;99.90
29803;DHT22;16702;50.898;4.662;2023-05-29T07:01:17;16.00;99.90
29803;DHT22;16702;50.898;4.662;2023-05-29T07:04:03;16.00;99.90
29803;DHT22;16702;50.898;4.662;2023-05-29T07:06:34;16.00;99.90
29803;DHT22;16702;50.898;4.662;2023-05-29T07:09:06;16.20;99.90
29803;DHT22;16702;50.898;4.662;2023-05-29T07:11:38;16.10;99.90
29803;DHT22;16702;50.898;4.662;2023-05-29T07:14:09;16.10;99.90
29803;DHT22;16702;50.898;4.662;2023-05-29T07:16:39;16.20;99.90
29803;DHT22;16702;50.898;4.662;2023-05-29T07:19:14;16.30;99.90
29803;DHT22;16702;50.898;4.662;2023-05-29T07:21:48;16.30;99.90
29803;DHT22;16702;50.898;4.662;2023-05-29T07:24:21;16.40;99.90
29803;DHT22;16702;50.898;4.662;2023-05-29T07:26:52;16.50;99.90
29803;DHT22;16702;50.898;4.662;2023-05-29T07:29:23;16.40;99.90
29803;DHT22;16702;50.898;4.662;2023-05-29T07:31:54;16.40;99.90
29803;DHT22;16702;50.898;4.662;2023-05-29T07:34:27;16.50;99.90
29803;DHT22;16702;50.898;4.662;2023-05-29T07:37:00;16.40;99.90
29803;DHT22;16702;50.898;4.662;2023-05-29T07:39:34;16.50;99.90
29803;DHT22;16702;50.898;4.662;2023-05-29T07:42:22;16.60;99.90
29803;DHT22;16702;50.898;4.662;2023-05-29T07:44:53;16.60;99.90
29803;DHT22;16702;50.898;4.662;2023-05-29T07:47:24;16.70;99.90
29803;DHT22;16702;50.898;4.662;2023-05-29T07:49:57;16.70;99.90
29803;DHT22;16702;50.898;4.662;2023-05-29T07:52:29;16.70;99.90
29803;DHT22;16702;50.898;4.662;2023-05-29T07:55:00;16.70;99.90
29803;DHT22;16702;50.898;4.662;2023-05-29T07:57:30;16.80;99.90
29803;DHT22;16702;50.898;4.662;2023-05-29T08:00:01;16.80;99.90
29803;DHT22;16702;50.898;4.662;2023-05-29T08:02:46;16.90;99.90
29803;DHT22;16702;50.898;4.662;2023-05-29T08:05:39;16.80;99.90
29803;DHT22;16702;50.898;4.662;2023-05-29T08:08:12;16.80;99.90
29803;DHT22;16702;50.898;4.662;2023-05-29T08:10:43;16.90;99.90
29803;DHT22;16702;50.898;4.662;2023-05-29T08:13:19;16.90;99.90
29803;DHT22;16702;50.898;4.662;2023-05-29T08:15:52;17.00;99.90
29803;DHT22;16702;50.898;4.662;2023-05-29T08:18:25;17.00;99.90
29803;DHT22;16702;50.898;4.662;2023-05-29T08:20:59;17.10;99.90
29803;DHT22;16702;50.898;4.662;2023-05-29T08:26:29;17.20;99.90
29803;DHT22;16702;50.898;4.662;2023-05-29T08:28:59;17.10;99.90
29803;DHT22;16702;50.898;4.662;2023-05-29T08:31:30;17.20;99.90
29803;DHT22;16702;50.898;4.662;2023-05-29T08:34:00;17.20;99.90
29803;DHT22;16702;50.898;4.662;2023-05-29T08:36:34;17.20;99.90
29803;DHT22;16702;50.898;4.662;2023-05-29T08:39:04;17.30;99.90
29803;DHT22;16702;50.898;4.662;2023-05-29T08:41:42;17.40;99.90
29803;DHT22;16702;50.898;4.662;2023-05-29T08:44:21;17.40;99.90
29803;DHT22;16702;50.898;4.662;2023-05-29T08:46:54;17.40;99.90
29803;DHT22;16702;50.898;4.662;2023-05-29T08:49:53;17.50;99.90
29803;DHT22;16702;50.898;4.662;2023-05-29T08:52:36;17.40;99.90
29803;DHT22;16702;50.898;4.662;2023-05-29T08:55:07;17.60;99.90
29803;DHT22;16702;50.898;4.662;2023-05-29T08:57:39;17.60;99.90
29803;DHT22;16702;50.898;4.662;2023-05-29T09:00:12;17.70;99.90
29803;DHT22;16702;50.898;4.662;2023-05-29T09:02:48;17.80;99.90
29803;DHT22;16702;50.898;4.662;2023-05-29T09:05:21;17.80;99.90
29803;DHT22;16702;50.898;4.662;2023-05-29T09:07:58;17.80;99.90
29803;DHT22;16702;50.898;4.662;2023-05-29T09:10:31;17.80;99.90
29803;DHT22;16702;50.898;4.662;2023-05-29T09:13:05;17.90;99.90
29803;DHT22;16702;50.898;4.662;2023-05-29T09:15:37;18.00;99.90
29803;DHT22;16702;50.898;4.662;2023-05-29T09:18:11;18.00;99.90
29803;DHT22;16702;50.898;4.662;2023-05-29T09:20:42;18.10;99.90
29803;DHT22;16702;50.898;4.662;2023-05-29T09:23:18;18.20;99.90
29803;DHT22;16702;50.898;4.662;2023-05-29T09:25:52;18.20;99.90
29803;DHT22;16702;50.898;4.662;2023-05-29T09:28:23;18.20;99.90
29803;DHT22;16702;50.898;4.662;2023-05-29T09:30:56;18.20;99.90
29803;DHT22;16702;50.898;4.662;2023-05-29T09:33:27;18.30;99.90
29803;DHT22;16702;50.898;4.662;2023-05-29T09:35:59;18.30;99.90
29803;DHT22;16702;50.898;4.662;2023-05-29T09:38:36;18.50;99.90
29803;DHT22;16702;50.898;4.662;2023-05-29T09:41:22;18.70;99.90
29803;DHT22;16702;50.898;4.662;2023-05-29T09:43:54;18.70;99.90
29803;DHT22;16702;50.898;4.662;2023-05-29T09:46:25;18.50;99.90
29803;DHT22;16702;50.898;4.662;2023-05-29T09:49:01;18.70;99.90
29803;DHT22;16702;50.898;4.662;2023-05-29T09:51:32;18.80;99.90
29803;DHT22;16702;50.898;4.662;2023-05-29T09:54:17;18.90;99.90
29803;DHT22;16702;50.898;4.662;2023-05-29T09:56:48;18.90;99.90
29803;DHT22;16702;50.898;4.662;2023-05-29T09:59:20;19.00;99.90
29803;DHT22;16702;50.898;4.662;2023-05-29T10:02:00;19.00;99.90
29803;DHT22;16702;50.898;4.662;2023-05-29T10:04:31;19.00;99.90
29803;DHT22;16702;50.898;4.662;2023-05-29T10:07:08;19.00;99.90
29803;DHT22;16702;50.898;4.662;2023-05-29T10:09:43;19.20;99.90
29803;DHT22;16702;50.898;4.662;2023-05-29T10:12:19;19.40;99.90
29803;DHT22;16702;50.898;4.662;2023-05-29T10:14:51;19.40;99.90
29803;DHT22;16702;50.898;4.662;2023-05-29T10:17:28;19.40;99.90
29803;DHT22;16702;50.898;4.662;2023-05-29T10:20:02;19.40;99.90
29803;DHT22;16702;50.898;4.662;2023-05-29T10:22:37;19.50;99.90
29803;DHT22;16702;50.898;4.662;2023-05-29T10:25:13;19.50;99.90
29803;DHT22;16702;50.898;4.662;2023-05-29T10:27:44;19.50;99.90
29803;DHT22;16702;50.898;4.662;2023-05-29T10:30:25;19.60;99.90
29803;DHT22;16702;50.898;4.662;2023-05-29T10:33:15;19.70;99.90
29803;DHT22;16702;50.898;4.662;2023-05-29T10:35:53;19.80;99.90
29803;DHT22;16702;50.898;4.662;2023-05-29T10:38:26;19.90;99.90
29803;DHT22;16702;50.898;4.662;2023-05-29T10:41:31;19.90;99.90
29803;DHT22;16702;50.898;4.662;2023-05-29T10:47:07;20.00;99.90
29803;DHT22;16702;50.898;4.662;2023-05-29T10:49:49;20.10;99.90
29803;DHT22;16702;50.898;4.662;2023-05-29T10:52:20;20.10;99.90
29803;DHT22;16702;50.898;4.662;2023-05-29T10:54:54;20.20;99.90
29803;DHT22;16702;50.898;4.662;2023-05-29T10:57:29;20.30;99.90
29803;DHT22;16702;50.898;4.662;2023-05-29T11:00:07;20.30;99.90
29803;DHT22;16702;50.898;4.662;2023-05-29T11:02:41;20.30;99.90
29803;DHT22;16702;50.898;4.662;2023-05-29T11:05:21;20.30;99.90
29803;DHT22;16702;50.898;4.662;2023-05-29T11:08:02;20.30;99.90
29803;DHT22;16702;50.898;4.662;2023-05-29T11:10:56;20.50;99.90
29803;DHT22;16702;50.898;4.662;2023-05-29T11:13:32;20.60;99.90
29803;DHT22;16702;50.898;4.662;2023-05-29T11:16:13;20.60;99.90
29803;DHT22;16702;50.898;4.662;2023-05-29T11:18:46;20.70;99.90
29803;DHT22;16702;50.898;4.662;2023-05-29T11:21:30;20.80;99.90
29803;DHT22;16702;50.898;4.662;2023-05-29T11:24:03;20.90;99.90
29803;DHT22;16702;50.898;4.662;2023-05-29T11:26:37;20.90;99.90
29803;DHT22;16702;50.898;4.662;2023-05-29T11:29:10;20.90;99.90
29803;DHT22;16702;50.898;4.662;2023-05-29T11:31:43;20.90;99.90
29803;DHT22;16702;50.898;4.662;2023-05-29T11:34:14;21.00;99.90
29803;DHT22;16702;50.898;4.662;2023-05-29T11:36:45;21.10;99.90
29803;DHT22;16702;50.898;4.662;2023-05-29T11:39:16;21.10;99.90
29803;DHT22;16702;50.898;4.662;2023-05-29T11:41:50;21.10;99.90
29803;DHT22;16702;50.898;4.662;2023-05-29T11:44:24;21.40;99.90
29803;DHT22;16702;50.898;4.662;2023-05-29T11:47:00;21.50;99.90
29803;DHT22;16702;50.898;4.662;2023-05-29T11:49:33;21.50;99.90
29803;DHT22;16702;50.898;4.662;2023-05-29T11:52:08;21.60;99.90
29803;DHT22;16702;50.898;4.662;2023-05-29T11:54:43;21.40;99.90
29803;DHT22;16702;50.898;4.662;2023-05-29T11:57:19;21.50;99.90
29803;DHT22;16702;50.898;4.662;2023-05-29T11:59:54;21.70;99.90
29803;DHT22;16702;50.898;4.662;2023-05-29T12:02:27;21.80;99.90
29803;DHT22;16702;50.898;4.662;2023-05-29T12:05:00;21.80;99.90
29803;DHT22;16702;50.898;4.662;2023-05-29T12:07:32;21.90;99.90
29803;DHT22;16702;50.898;4.662;2023-05-29T12:10:09;22.00;99.90
29803;DHT22;16702;50.898;4.662;2023-05-29T12:12:41;22.00;99.90
29803;DHT22;16702;50.898;4.662;2023-05-29T12:15:14;22.10;99.90
29803;DHT22;16702;50.898;4.662;2023-05-29T12:17:46;22.00;99.90
29803;DHT22;16702;50.898;4.662;2023-05-29T12:20:17;22.00;99.90
29803;DHT22;16702;50.898;4.662;2023-05-29T12:22:48;22.10;99.90
29803;DHT22;16702;50.898;4.662;2023-05-29T12:25:20;22.00;99.20
29803;DHT22;16702;50.898;4.662;2023-05-29T12:27:50;22.00;99.00
29803;DHT22;16702;50.898;4.662;2023-05-29T12:30:24;22.20;99.60
29803;DHT22;16702;50.898;4.662;2023-05-29T12:33:00;22.20;99.10
29803;DHT22;16702;50.898;4.662;2023-05-29T12:35:32;22.20;99.20
29803;DHT22;16702;50.898;4.662;2023-05-29T12:38:05;22.40;99.10
29803;DHT22;16702;50.898;4.662;2023-05-29T12:40:36;22.30;98.80
29803;DHT22;16702;50.898;4.662;2023-05-29T12:43:07;22.50;99.40
29803;DHT22;16702;50.898;4.662;2023-05-29T12:45:40;22.50;98.60
29803;DHT22;16702;50.898;4.662;2023-05-29T12:48:11;22.50;98.50
29803;DHT22;16702;50.898;4.662;2023-05-29T12:50:42;22.60;99.40
29803;DHT22;16702;50.898;4.662;2023-05-29T12:53:15;22.70;98.60
29803;DHT22;16702;50.898;4.662;2023-05-29T12:55:47;22.70;98.40
29803;DHT22;16702;50.898;4.662;2023-05-29T12:58:18;22.60;97.60
29803;DHT22;16702;50.898;4.662;2023-05-29T13:00:53;22.70;98.30
29803;DHT22;16702;50.898;4.662;2023-05-29T13:03:25;22.80;98.30
29803;DHT22;16702;50.898;4.662;2023-05-29T13:05:56;22.90;98.20
29803;DHT22;16702;50.898;4.662;2023-05-29T13:08:27;22.90;98.20
29803;DHT22;16702;50.898;4.662;2023-05-29T13:10:57;23.00;98.20
29803;DHT22;16702;50.898;4.662;2023-05-29T13:13:28;23.10;98.00
29803;DHT22;16702;50.898;4.662;2023-05-29T13:16:01;23.20;97.80
29803;DHT22;16702;50.898;4.662;2023-05-29T13:18:32;23.20;97.70
29803;DHT22;16702;50.898;4.662;2023-05-29T13:21:03;23.30;98.50
29803;DHT22;16702;50.898;4.662;2023-05-29T13:23:33;23.30;97.30
29803;DHT22;16702;50.898;4.662;2023-05-29T13:26:04;23.40;98.10
29803;DHT22;16702;50.898;4.662;2023-05-29T13:28:35;23.30;96.90
29803;DHT22;16702;50.898;4.662;2023-05-29T13:31:08;23.50;97.40
29803;DHT22;16702;50.898;4.662;2023-05-29T13:33:39;23.30;97.00
29803;DHT22;16702;50.898;4.662;2023-05-29T13:36:09;23.50;98.00
29803;DHT22;16702;50.898;4.662;2023-05-29T13:38:40;23.60;98.10
29803;DHT22;16702;50.898;4.662;2023-05-29T13:41:11;23.70;97.60
29803;DHT22;16702;50.898;4.662;2023-05-29T13:43:42;23.80;97.80
29803;DHT22;16702;50.898;4.662;2023-05-29T13:46:15;23.80;97.70
29803;DHT22;16702;50.898;4.662;2023-05-29T13:48:46;23.90;96.90
29803;DHT22;16702;50.898;4.662;2023-05-29T13:51:16;23.80;97.10
29803;DHT22;16702;50.898;4.662;2023-05-29T13:53:49;23.70;96.40
29803;DHT22;16702;50.898;4.662;2023-05-29T13:56:20;23.80;97.50
29803;DHT22;16702;50.898;4.662;2023-05-29T13:58:50;24.00;97.40
29803;DHT22;16702;50.898;4.662;2023-05-29T14:01:23;24.00;96.10
29803;DHT22;16702;50.898;4.662;2023-05-29T14:03:54;24.00;96.20
29803;DHT22;16702;50.898;4.662;2023-05-29T14:06:24;24.20;96.50
29803;DHT22;16702;50.898;4.662;2023-05-29T14:08:55;24.20;96.10
29803;DHT22;16702;50.898;4.662;2023-05-29T14:11:26;24.10;96.50
29803;DHT22;16702;50.898;4.662;2023-05-29T14:13:56;24.20;96.00
29803;DHT22;16702;50.898;4.662;2023-05-29T14:16:29;24.20;96.10
29803;DHT22;16702;50.898;4.662;2023-05-29T14:19:01;24.30;95.10
29803;DHT22;16702;50.898;4.662;2023-05-29T14:21:31;24.30;95.80
29803;DHT22;16702;50.898;4.662;2023-05-29T14:24:03;24.20;95.50
29803;DHT22;16702;50.898;4.662;2023-05-29T14:26:34;24.00;95.20
29803;DHT22;16702;50.898;4.662;2023-05-29T14:29:05;24.00;95.10
29803;DHT22;16702;50.898;4.662;2023-05-29T14:31:44;24.20;95.20
29803;DHT22;16702;50.898;4.662;2023-05-29T14:34:15;24.30;96.00
29803;DHT22;16702;50.898;4.662;2023-05-29T14:36:45;24.30;96.00
29803;DHT22;16702;50.898;4.662;2023-05-29T14:39:17;24.30;95.60
29803;DHT22;16702;50.898;4.662;2023-05-29T14:41:48;24.10;95.20
29803;DHT22;16702;50.898;4.662;2023-05-29T14:44:18;24.00;95.80
29803;DHT22;16702;50.898;4.662;2023-05-29T14:46:51;24.10;95.50
29803;DHT22;16702;50.898;4.662;2023-05-29T14:49:22;24.10;95.50
29803;DHT22;16702;50.898;4.662;2023-05-29T14:51:55;24.00;95.40
29803;DHT22;16702;50.898;4.662;2023-05-29T14:54:26;24.10;95.60
29803;DHT22;16702;50.898;4.662;2023-05-29T14:56:56;24.00;95.80
29803;DHT22;16702;50.898;4.662;2023-05-29T14:59:27;24.00;95.20
29803;DHT22;16702;50.898;4.662;2023-05-29T15:02:01;23.90;95.40
29803;DHT22;16702;50.898;4.662;2023-05-29T15:04:31;24.00;95.10
29803;DHT22;16702;50.898;4.662;2023-05-29T15:07:02;24.10;95.40
29803;DHT22;16702;50.898;4.662;2023-05-29T15:09:33;24.00;95.40
29803;DHT22;16702;50.898;4.662;2023-05-29T15:12:04;24.10;95.00
29803;DHT22;16702;50.898;4.662;2023-05-29T15:14:35;23.90;95.70
29803;DHT22;16702;50.898;4.662;2023-05-29T15:17:09;24.00;95.00
29803;DHT22;16702;50.898;4.662;2023-05-29T15:19:39;23.90;95.10
29803;DHT22;16702;50.898;4.662;2023-05-29T15:22:10;23.90;94.90
29803;DHT22;16702;50.898;4.662;2023-05-29T15:24:43;23.90;94.70
29803;DHT22;16702;50.898;4.662;2023-05-29T15:27:14;23.80;94.80
29803;DHT22;16702;50.898;4.662;2023-05-29T15:29:44;23.80;95.70
29803;DHT22;16702;50.898;4.662;2023-05-29T15:32:17;23.80;95.60
29803;DHT22;16702;50.898;4.662;2023-05-29T15:34:48;23.80;95.10
29803;DHT22;16702;50.898;4.662;2023-05-29T15:37:19;23.60;95.30
29803;DHT22;16702;50.898;4.662;2023-05-29T15:39:49;23.60;95.10
29803;DHT22;16702;50.898;4.662;2023-05-29T15:42:20;23.70;95.20
29803;DHT22;16702;50.898;4.662;2023-05-29T15:44:50;23.70;95.50
29803;DHT22;16702;50.898;4.662;2023-05-29T15:47:23;23.50;95.30
29803;DHT22;16702;50.898;4.662;2023-05-29T15:49:54;23.60;94.40
29803;DHT22;16702;50.898;4.662;2023-05-29T15:52:25;23.60;95.10
29803;DHT22;16702;50.898;4.662;2023-05-29T15:55:03;23.50;94.80
29803;DHT22;16702;50.898;4.662;2023-05-29T15:57:33;23.60;94.40
29803;DHT22;16702;50.898;4.662;2023-05-29T16:00:05;23.70;94.70
29803;DHT22;16702;50.898;4.662;2023-05-29T16:02:39;23.60;93.90
29803;DHT22;16702;50.898;4.662;2023-05-29T16:05:10;23.50;93.60
29803;DHT22;16702;50.898;4.662;2023-05-29T16:07:40;23.50;93.10
29803;DHT22;16702;50.898;4.662;2023-05-29T16:10:15;23.50;92.40
29803;DHT22;16702;50.898;4.662;2023-05-29T16:12:47;23.60;93.00
29803;DHT22;16702;50.898;4.662;2023-05-29T16:15:18;23.50;90.90